Time;durP1;ratioP1;P1;durP2;ratioP2;P2;SDS_P1;SDS_P2;PMS_P1;PMS_P2;Temp;Humidity;BMP_temperature;BMP_pressure;BME280_temperature;BME280_humidity;BME280_pressure;Samples;Min_cycle;Max_cycle;Signal;HPM_P1;HPM_P2
2021/07/20 00:02:31;;;;;;;8.13;5.72;;;23.90;99.90;;;;;;5092190;28;20024;-70
2021/07/20 00:05:01;;;;;;;8.45;5.68;;;23.90;99.90;;;;;;5108061;28;20023;-70
2021/07/20 00:07:28;;;;;;;13.25;6.32;;;23.80;99.90;;;;;;5112688;28;20181;-71
2021/07/20 00:09:54;;;;;;;16.55;6.88;;;23.80;99.90;;;;;;5097102;28;20096;-71
2021/07/20 00:12:21;;;;;;;12.10;6.68;;;23.80;99.90;;;;;;5095568;28;20046;-70
2021/07/20 00:14:49;;;;;;;13.80;5.85;;;23.80;99.90;;;;;;5101625;28;20032;-71
2021/07/20 00:17:15;;;;;;;11.57;6.53;;;23.70;99.90;;;;;;5106050;28;20115;-71
2021/07/20 00:19:41;;;;;;;12.60;7.15;;;23.70;99.90;;;;;;5091110;28;20106;-70
2021/07/20 00:22:07;;;;;;;8.68;5.97;;;23.70;99.90;;;;;;5089717;28;20436;-71
2021/07/20 00:24:33;;;;;;;9.57;6.40;;;23.70;99.90;;;;;;5090140;28;20485;-71
2021/07/20 00:26:58;;;;;;;10.15;7.03;;;23.70;99.90;;;;;;5091179;28;20030;-70
2021/07/20 00:29:24;;;;;;;17.20;6.40;;;23.60;99.90;;;;;;5089578;28;20035;-70
2021/07/20 00:31:52;;;;;;;16.20;7.35;;;23.60;99.90;;;;;;5091951;28;20028;-70
2021/07/20 00:34:18;;;;;;;17.50;7.88;;;23.60;99.90;;;;;;5111277;28;20085;-71
2021/07/20 00:36:43;;;;;;;7.60;5.93;;;23.70;99.90;;;;;;5109572;28;20481;-71
2021/07/20 00:39:09;;;;;;;10.23;6.25;;;23.70;99.90;;;;;;5098996;28;20024;-69
2021/07/20 00:41:37;;;;;;;9.65;6.28;;;23.60;99.90;;;;;;5090442;28;20393;-71
2021/07/20 00:44:03;;;;;;;16.70;5.95;;;23.70;99.90;;;;;;5090789;28;20035;-71
2021/07/20 00:46:28;;;;;;;11.25;7.30;;;23.70;99.90;;;;;;5089185;28;20366;-71
2021/07/20 00:48:54;;;;;;;13.73;6.63;;;23.70;99.90;;;;;;5090423;28;20040;-70
2021/07/20 00:51:20;;;;;;;10.23;7.50;;;23.70;99.90;;;;;;5089340;28;20103;-71
2021/07/20 00:53:48;;;;;;;19.65;9.68;;;23.70;99.90;;;;;;5090417;28;20544;-71
2021/07/20 00:56:17;;;;;;;14.27;6.68;;;23.70;99.90;;;;;;5089366;28;20036;-71
2021/07/20 00:58:43;;;;;;;16.85;7.88;;;23.70;99.90;;;;;;5092893;28;20478;-71
2021/07/20 01:01:12;;;;;;;12.13;7.43;;;23.90;99.90;;;;;;5092128;28;20020;-72
2021/07/20 01:03:41;;;;;;;19.75;9.38;;;23.90;99.90;;;;;;5090172;28;20025;-70
2021/07/20 01:06:07;;;;;;;23.27;7.05;;;23.90;99.90;;;;;;5090421;28;20028;-69
2021/07/20 01:08:33;;;;;;;11.07;7.20;;;24.00;99.90;;;;;;5090188;28;20028;-70
2021/07/20 01:11:01;;;;;;;15.18;7.68;;;24.00;99.90;;;;;;5090551;28;20440;-70
2021/07/20 01:13:28;;;;;;;11.73;7.68;;;24.00;99.90;;;;;;5088858;28;20159;-70
2021/07/20 01:15:54;;;;;;;10.55;6.85;;;24.00;99.90;;;;;;5089051;28;20032;-71
2021/07/20 01:18:22;;;;;;;14.00;7.95;;;24.00;99.90;;;;;;5097219;28;20026;-71
2021/07/20 01:20:48;;;;;;;10.57;7.22;;;24.00;99.90;;;;;;5094046;28;20093;-71
2021/07/20 01:23:22;;;;;;;12.98;8.25;;;24.00;99.90;;;;;;5089029;28;20020;-71
2021/07/20 01:25:50;;;;;;;9.90;7.38;;;24.10;99.90;;;;;;5090483;28;20378;-71
2021/07/20 01:28:22;;;;;;;12.98;7.38;;;24.10;99.90;;;;;;5088974;28;20570;-70
2021/07/20 01:30:57;;;;;;;15.85;7.25;;;24.20;99.90;;;;;;5090232;28;20024;-70
2021/07/20 01:33:26;;;;;;;12.35;7.43;;;24.30;99.90;;;;;;5090022;28;20044;-70
2021/07/20 01:35:53;;;;;;;13.98;6.97;;;24.20;99.90;;;;;;5091473;28;20031;-70
2021/07/20 01:38:21;;;;;;;9.18;7.38;;;24.10;99.90;;;;;;5114374;27;20027;-69
2021/07/20 01:40:49;;;;;;;18.40;7.43;;;24.00;99.90;;;;;;5098689;28;20019;-70
2021/07/20 01:43:18;;;;;;;12.07;8.70;;;24.00;99.90;;;;;;5094176;28;20114;-70
2021/07/20 01:45:44;;;;;;;17.73;8.05;;;24.00;99.90;;;;;;5092756;28;20429;-70
2021/07/20 01:48:11;;;;;;;10.50;6.60;;;24.00;99.90;;;;;;5093760;28;20059;-70
2021/07/20 01:50:37;;;;;;;15.95;8.23;;;23.90;99.90;;;;;;5104204;28;20031;-70
2021/07/20 01:53:04;;;;;;;11.95;7.68;;;23.90;99.90;;;;;;5112879;28;20065;-71
2021/07/20 01:55:31;;;;;;;12.90;7.70;;;23.90;99.90;;;;;;5112776;28;20024;-71
2021/07/20 01:57:57;;;;;;;11.82;9.40;;;23.90;99.90;;;;;;5095109;28;20032;-71
2021/07/20 02:00:23;;;;;;;10.95;7.90;;;23.80;99.90;;;;;;5092371;28;20126;-71
2021/07/20 02:08:49;;;;;;;12.32;7.53;;;23.70;99.90;;;;;;5093786;28;20040;-70
2021/07/20 02:11:26;;;;;;;11.43;8.00;;;23.70;99.90;;;;;;5101225;28;20075;-71
2021/07/20 02:14:01;;;;;;;10.68;7.70;;;23.60;99.90;;;;;;5097303;28;20043;-71
2021/07/20 02:16:30;;;;;;;13.32;7.18;;;23.70;99.90;;;;;;5103550;28;20042;-71
2021/07/20 02:19:12;;;;;;;17.50;8.20;;;23.60;99.90;;;;;;5099444;28;20550;-71
2021/07/20 02:21:44;;;;;;;9.10;7.68;;;23.40;99.90;;;;;;5093290;28;20035;-70
2021/07/20 02:24:11;;;;;;;11.02;7.75;;;23.50;99.90;;;;;;5092048;28;20027;-70
2021/07/20 02:26:39;;;;;;;12.65;7.97;;;23.70;99.90;;;;;;5093184;28;20417;-70
2021/07/20 02:29:06;;;;;;;12.38;7.90;;;23.70;99.90;;;;;;5091558;28;20028;-70
2021/07/20 02:31:35;;;;;;;12.65;9.02;;;23.60;99.90;;;;;;5095561;28;20027;-69
2021/07/20 02:34:03;;;;;;;18.92;7.40;;;23.40;99.90;;;;;;5103672;28;20070;-70
2021/07/20 02:36:35;;;;;;;18.75;8.48;;;23.30;99.90;;;;;;5115209;28;20024;-70
2021/07/20 02:39:04;;;;;;;14.20;7.90;;;23.30;99.90;;;;;;5095354;28;20110;-70
2021/07/20 02:41:31;;;;;;;12.27;6.85;;;23.30;99.90;;;;;;5094222;28;20501;-70
2021/07/20 02:43:59;;;;;;;11.82;7.80;;;23.30;99.90;;;;;;5093817;28;20016;-70
2021/07/20 02:46:29;;;;;;;15.23;7.75;;;23.40;99.90;;;;;;5093551;28;20034;-70
2021/07/20 02:48:58;;;;;;;11.13;7.40;;;23.40;99.90;;;;;;5092311;28;20369;-70
2021/07/20 02:51:25;;;;;;;18.92;9.05;;;23.40;99.90;;;;;;5092668;28;20047;-70
2021/07/20 02:53:57;;;;;;;10.35;7.90;;;23.30;99.90;;;;;;5093580;28;20030;-71
2021/07/20 02:56:24;;;;;;;14.23;7.10;;;23.40;99.90;;;;;;5092558;28;20473;-69
2021/07/20 02:58:52;;;;;;;20.13;7.45;;;23.50;99.90;;;;;;5092277;28;20516;-69
2021/07/20 03:01:19;;;;;;;20.02;13.40;;;23.60;99.90;;;;;;5092720;28;20386;-70
2021/07/20 03:03:51;;;;;;;15.32;7.63;;;23.60;99.90;;;;;;5091487;28;20040;-70
2021/07/20 03:06:17;;;;;;;18.75;9.15;;;23.60;99.90;;;;;;5092815;28;20115;-70
2021/07/20 03:08:45;;;;;;;16.85;11.45;;;23.50;99.90;;;;;;5099640;28;20031;-70
2021/07/20 03:11:14;;;;;;;17.13;9.50;;;23.60;99.90;;;;;;5112737;28;20027;-70
2021/07/20 03:13:45;;;;;;;12.75;8.70;;;23.60;99.90;;;;;;5095716;28;20031;-70
2021/07/20 03:16:14;;;;;;;13.63;7.68;;;23.70;99.90;;;;;;5092446;28;20039;-70
2021/07/20 03:18:43;;;;;;;15.07;7.35;;;23.90;99.90;;;;;;5090912;28;20482;-70
2021/07/20 03:21:12;;;;;;;9.20;7.03;;;23.90;99.90;;;;;;5111039;27;20106;-71
2021/07/20 03:23:40;;;;;;;8.52;7.07;;;23.80;99.90;;;;;;5092093;28;20028;-70
2021/07/20 03:26:08;;;;;;;15.48;7.85;;;23.80;99.90;;;;;;5090742;28;20020;-70
2021/07/20 03:28:35;;;;;;;14.82;7.80;;;24.00;99.90;;;;;;5090261;28;20114;-70
2021/07/20 03:31:02;;;;;;;13.13;7.22;;;24.00;99.90;;;;;;5092093;28;20027;-70
2021/07/20 03:33:31;;;;;;;12.50;6.78;;;23.90;99.90;;;;;;5092092;28;20030;-70
2021/07/20 03:35:57;;;;;;;17.58;7.15;;;23.90;99.90;;;;;;5092533;28;20012;-70
2021/07/20 03:38:24;;;;;;;10.18;6.88;;;23.80;99.90;;;;;;5092621;28;20020;-71
2021/07/20 03:40:52;;;;;;;13.15;6.60;;;23.80;99.90;;;;;;5112047;28;20091;-70
2021/07/20 03:43:23;;;;;;;14.63;7.90;;;23.70;99.90;;;;;;5107175;28;20057;-70
2021/07/20 03:45:50;;;;;;;16.90;7.75;;;23.80;99.90;;;;;;5112502;28;20024;-69
2021/07/20 03:48:17;;;;;;;12.32;6.68;;;23.80;99.90;;;;;;5109152;28;20054;-70
2021/07/20 03:50:45;;;;;;;7.30;6.32;;;23.80;99.90;;;;;;5105766;28;20032;-70
2021/07/20 03:53:14;;;;;;;9.18;6.88;;;23.80;99.90;;;;;;5091832;28;20027;-70
2021/07/20 03:55:45;;;;;;;10.57;7.07;;;23.90;99.90;;;;;;5090603;28;20621;-69
2021/07/20 03:58:13;;;;;;;11.15;6.82;;;24.10;99.90;;;;;;5089739;28;20120;-70
2021/07/20 04:00:40;;;;;;;15.50;6.95;;;24.20;99.90;;;;;;5092245;28;20726;-71
2021/07/20 04:03:26;;;;;;;13.65;7.38;;;24.30;99.90;;;;;;5089940;28;20040;-70
2021/07/20 04:06:04;;;;;;;13.15;7.00;;;24.30;99.90;;;;;;5089814;28;20036;-71
2021/07/20 04:08:33;;;;;;;14.63;6.93;;;24.30;99.90;;;;;;5091809;28;20093;-71
2021/07/20 04:11:00;;;;;;;9.48;7.25;;;24.10;99.90;;;;;;5105135;28;20020;-70
2021/07/20 04:13:27;;;;;;;13.00;7.40;;;24.10;99.90;;;;;;5093312;28;20107;-70
2021/07/20 04:16:19;;;;;;;9.75;6.35;;;24.10;99.90;;;;;;5100572;28;20162;-70
2021/07/20 04:18:45;;;;;;;10.35;6.32;;;24.10;99.90;;;;;;5108292;28;20516;-70
2021/07/20 04:21:20;;;;;;;12.68;7.55;;;24.10;99.90;;;;;;5103101;28;20452;-70
2021/07/20 04:23:55;;;;;;;14.98;7.82;;;24.10;99.90;;;;;;5091096;28;20056;-70
2021/07/20 04:26:24;;;;;;;9.88;6.70;;;24.20;99.90;;;;;;5091008;28;20024;-69
2021/07/20 04:28:51;;;;;;;13.25;6.55;;;24.20;99.90;;;;;;5092138;28;20428;-70
2021/07/20 04:31:21;;;;;;;14.38;7.45;;;24.20;99.90;;;;;;5090926;28;20035;-69
2021/07/20 04:33:49;;;;;;;12.55;6.80;;;24.30;99.90;;;;;;5091020;28;20050;-70
2021/07/20 04:36:15;;;;;;;20.20;7.40;;;24.20;99.90;;;;;;5090739;28;20441;-69
2021/07/20 04:38:42;;;;;;;12.20;7.35;;;24.00;99.90;;;;;;5090767;28;20080;-69
2021/07/20 04:41:19;;;;;;;12.60;7.00;;;23.80;99.90;;;;;;5100181;28;20419;-69
2021/07/20 04:43:47;;;;;;;12.40;8.00;;;23.90;99.90;;;;;;5091119;28;20389;-70
2021/07/20 04:46:15;;;;;;;13.45;9.68;;;23.70;99.90;;;;;;5089452;28;20024;-70
2021/07/20 04:48:41;;;;;;;16.10;10.27;;;23.70;99.90;;;;;;5092979;28;20024;-70
2021/07/20 04:51:07;;;;;;;10.55;8.18;;;23.70;99.90;;;;;;5092049;28;20035;-70
2021/07/20 04:53:39;;;;;;;14.25;8.05;;;23.70;99.90;;;;;;5097961;28;20024;-70
2021/07/20 04:56:05;;;;;;;12.55;7.80;;;23.90;99.90;;;;;;5102095;28;20024;-70
2021/07/20 04:58:31;;;;;;;11.88;7.78;;;24.00;99.90;;;;;;5090204;28;20066;-70
2021/07/20 05:00:58;;;;;;;19.65;9.40;;;24.10;99.90;;;;;;5089281;28;20026;-69
2021/07/20 05:03:25;;;;;;;12.95;7.50;;;24.20;99.90;;;;;;5091278;28;20479;-72
2021/07/20 05:05:54;;;;;;;13.02;7.97;;;24.30;99.90;;;;;;5109441;28;20024;-70
2021/07/20 05:08:21;;;;;;;13.45;7.35;;;24.30;99.90;;;;;;5110825;28;20035;-69
2021/07/20 05:10:49;;;;;;;13.13;7.88;;;24.30;99.90;;;;;;5108459;28;20024;-69
2021/07/20 05:13:19;;;;;;;11.18;7.57;;;24.20;99.90;;;;;;5115412;28;20034;-70
2021/07/20 05:15:53;;;;;;;12.30;7.20;;;24.20;99.90;;;;;;5101385;28;20063;-70
2021/07/20 05:18:20;;;;;;;21.38;7.47;;;24.20;99.90;;;;;;5093101;28;20055;-70
2021/07/20 05:20:49;;;;;;;11.38;8.10;;;24.20;99.90;;;;;;5094595;28;20043;-69
2021/07/20 05:23:18;;;;;;;13.95;8.48;;;24.20;99.90;;;;;;5093573;28;20028;-70
2021/07/20 05:25:50;;;;;;;10.73;8.55;;;24.30;99.90;;;;;;5092957;28;20516;-70
2021/07/20 05:28:24;;;;;;;15.13;8.73;;;24.30;99.90;;;;;;5103431;28;20117;-69
2021/07/20 05:30:51;;;;;;;18.73;9.13;;;24.40;99.90;;;;;;5115322;27;20031;-69
2021/07/20 05:33:20;;;;;;;15.63;8.40;;;24.40;99.90;;;;;;5114508;28;20027;-69
2021/07/20 05:35:54;;;;;;;11.70;7.80;;;24.50;99.90;;;;;;5114409;28;20098;-69
2021/07/20 05:38:21;;;;;;;12.65;8.93;;;24.50;99.90;;;;;;5114392;28;20359;-71
2021/07/20 05:40:49;;;;;;;17.85;8.77;;;24.60;99.90;;;;;;5111494;28;20630;-70
2021/07/20 05:43:17;;;;;;;11.73;8.65;;;24.60;99.90;;;;;;5114767;28;20075;-70
2021/07/20 05:45:43;;;;;;;10.40;7.97;;;24.60;99.90;;;;;;5095714;28;20444;-69
2021/07/20 05:48:10;;;;;;;16.25;8.57;;;24.70;99.90;;;;;;5093983;28;20020;-69
2021/07/20 05:50:41;;;;;;;16.55;9.20;;;24.70;99.90;;;;;;5098790;28;20500;-69
2021/07/20 05:53:08;;;;;;;15.33;8.13;;;24.70;99.90;;;;;;5099057;28;20038;-69
2021/07/20 05:55:35;;;;;;;13.63;10.15;;;24.80;99.90;;;;;;5098937;28;20034;-70
2021/07/20 05:58:01;;;;;;;12.85;8.27;;;24.80;99.90;;;;;;5094456;28;20032;-69
2021/07/20 06:00:28;;;;;;;24.73;9.38;;;24.90;99.90;;;;;;5093323;28;20024;-69
2021/07/20 06:02:55;;;;;;;15.43;8.52;;;25.10;99.90;;;;;;5094211;28;20359;-70
2021/07/20 06:05:27;;;;;;;11.95;7.97;;;25.30;99.90;;;;;;5093017;28;20110;-68
2021/07/20 06:07:53;;;;;;;8.35;7.55;;;25.30;99.90;;;;;;5094851;28;20071;-70
2021/07/20 06:10:20;;;;;;;14.38;8.38;;;25.40;99.90;;;;;;5094111;28;20035;-70
2021/07/20 06:12:48;;;;;;;12.25;8.88;;;25.40;99.90;;;;;;5104591;28;20062;-70
2021/07/20 06:15:16;;;;;;;14.10;8.25;;;25.50;99.90;;;;;;5092593;28;20024;-72
2021/07/20 06:17:43;;;;;;;15.73;9.52;;;25.40;99.90;;;;;;5094345;28;21033;-69
2021/07/20 06:20:12;;;;;;;16.00;9.77;;;25.50;99.90;;;;;;5112910;28;20473;-69
2021/07/20 06:22:44;;;;;;;14.88;10.05;;;25.60;99.90;;;;;;5113416;28;20024;-69
2021/07/20 06:25:13;;;;;;;11.38;8.63;;;25.80;99.90;;;;;;5093025;28;20016;-68
2021/07/20 06:27:41;;;;;;;20.20;14.68;;;25.80;99.90;;;;;;5092139;28;20668;-70
2021/07/20 06:30:08;;;;;;;23.17;12.50;;;25.90;99.90;;;;;;5091991;28;20032;-71
2021/07/20 06:32:35;;;;;;;17.80;9.70;;;26.10;99.90;;;;;;5095245;28;20023;-67
2021/07/20 06:35:01;;;;;;;13.95;8.60;;;26.40;99.90;;;;;;5104984;28;20035;-67
2021/07/20 06:37:27;;;;;;;22.10;8.60;;;26.50;99.90;;;;;;5113784;28;20046;-68
2021/07/20 06:39:53;;;;;;;14.30;9.68;;;26.60;99.90;;;;;;5112070;28;20024;-66
2021/07/20 06:42:19;;;;;;;10.93;7.63;;;26.60;99.90;;;;;;5111358;28;20061;-71
2021/07/20 06:44:46;;;;;;;13.80;8.70;;;26.70;99.90;;;;;;5091690;28;20020;-67
2021/07/20 06:47:16;;;;;;;19.15;9.23;;;26.70;99.90;;;;;;5106162;28;20081;-70
2021/07/20 06:49:46;;;;;;;9.77;8.00;;;26.80;99.90;;;;;;5109635;28;20024;-67
2021/07/20 06:52:13;;;;;;;14.27;9.18;;;26.90;99.90;;;;;;5106042;28;20027;-67
2021/07/20 06:54:39;;;;;;;12.35;8.30;;;27.10;99.90;;;;;;5102983;28;20036;-67
2021/07/20 06:57:17;;;;;;;19.33;9.20;;;27.10;99.90;;;;;;5110146;28;20468;-69
2021/07/20 06:59:47;;;;;;;10.65;7.75;;;27.00;99.90;;;;;;5109265;28;20027;-69
2021/07/20 07:02:19;;;;;;;11.00;8.68;;;26.90;99.90;;;;;;5104281;28;20047;-70
2021/07/20 07:05:04;;;;;;;15.82;8.98;;;26.90;99.90;;;;;;5112003;28;20012;-68
2021/07/20 07:07:31;;;;;;;10.15;9.02;;;26.80;99.90;;;;;;5110554;28;20031;-68
2021/07/20 07:09:59;;;;;;;11.43;9.05;;;26.90;99.90;;;;;;5111417;28;20027;-67
2021/07/20 07:12:26;;;;;;;13.93;9.13;;;26.80;99.90;;;;;;5113044;28;20052;-68
2021/07/20 07:14:53;;;;;;;20.90;9.25;;;26.80;99.90;;;;;;5112008;28;20080;-68
2021/07/20 07:17:19;;;;;;;22.08;8.88;;;26.90;99.90;;;;;;5112727;28;20075;-68
2021/07/20 07:19:48;;;;;;;19.75;12.60;;;27.00;99.90;;;;;;5113028;28;20024;-69
2021/07/20 07:22:17;;;;;;;13.23;8.75;;;27.20;99.90;;;;;;5111184;28;20023;-67
2021/07/20 07:24:46;;;;;;;14.77;9.18;;;27.40;99.90;;;;;;5111256;28;20502;-67
2021/07/20 07:27:16;;;;;;;15.18;8.32;;;27.50;99.90;;;;;;5112490;28;20015;-69
2021/07/20 07:29:42;;;;;;;13.25;8.73;;;27.50;99.90;;;;;;5112430;28;20056;-68
2021/07/20 07:32:09;;;;;;;10.02;8.75;;;27.50;99.90;;;;;;5112446;28;20020;-70
2021/07/20 07:34:36;;;;;;;12.82;8.27;;;27.60;99.90;;;;;;5110388;28;20039;-70
2021/07/20 07:37:02;;;;;;;17.95;9.80;;;27.70;99.90;;;;;;5112407;28;20023;-69
2021/07/20 07:39:29;;;;;;;15.80;9.40;;;27.50;99.90;;;;;;5111949;28;20503;-67
2021/07/20 07:41:57;;;;;;;11.90;8.40;;;27.50;99.90;;;;;;5110734;28;20042;-67
2021/07/20 07:44:24;;;;;;;11.20;7.82;;;27.50;99.90;;;;;;5110852;28;20032;-68
2021/07/20 07:46:51;;;;;;;12.10;9.23;;;27.30;99.90;;;;;;5110900;28;20027;-68
2021/07/20 07:49:18;;;;;;;11.13;7.07;;;27.30;99.90;;;;;;5110603;28;20447;-69
2021/07/20 07:51:46;;;;;;;11.88;8.35;;;27.30;99.90;;;;;;5112538;28;20269;-68
2021/07/20 07:54:13;;;;;;;18.45;8.95;;;27.40;99.90;;;;;;5112466;28;20024;-68
2021/07/20 07:56:44;;;;;;;19.48;8.77;;;27.60;99.90;;;;;;5111426;28;20076;-67
2021/07/20 07:59:12;;;;;;;15.02;8.93;;;27.80;99.90;;;;;;5112902;28;20019;-68
2021/07/20 08:01:44;;;;;;;16.83;8.43;;;28.00;99.90;;;;;;5112041;28;20073;-72
2021/07/20 08:04:11;;;;;;;22.23;8.88;;;28.10;99.90;;;;;;5111131;28;20016;-67
2021/07/20 08:06:38;;;;;;;15.60;8.25;;;28.30;99.90;;;;;;5110522;28;20051;-69
2021/07/20 08:09:05;;;;;;;18.45;8.00;;;28.20;99.90;;;;;;5110271;28;20114;-66
2021/07/20 08:11:32;;;;;;;16.08;8.15;;;28.00;99.90;;;;;;5110382;28;20027;-67
2021/07/20 08:14:01;;;;;;;12.98;8.07;;;28.00;99.90;;;;;;5111753;28;20030;-68
2021/07/20 08:16:37;;;;;;;14.80;9.32;;;28.30;99.90;;;;;;5110337;28;20105;-69
2021/07/20 08:19:03;;;;;;;15.07;8.82;;;28.50;99.90;;;;;;5106973;28;20046;-69
2021/07/20 08:21:32;;;;;;;15.55;8.57;;;28.60;99.90;;;;;;5111394;28;20462;-69
2021/07/20 08:23:58;;;;;;;14.70;8.52;;;28.60;99.90;;;;;;5111794;28;20024;-68
2021/07/20 08:26:28;;;;;;;14.55;8.13;;;28.60;99.90;;;;;;5111603;28;20027;-68
2021/07/20 08:29:03;;;;;;;14.38;8.93;;;28.50;99.90;;;;;;5111466;28;20023;-68
2021/07/20 08:31:35;;;;;;;16.63;8.68;;;28.50;99.90;;;;;;5111353;28;20397;-67
2021/07/20 08:34:04;;;;;;;12.82;8.98;;;28.40;99.90;;;;;;5109997;28;20554;-69
2021/07/20 08:36:33;;;;;;;14.88;8.13;;;28.30;99.90;;;;;;5110395;28;20114;-67
2021/07/20 08:39:01;;;;;;;14.35;8.13;;;28.20;99.90;;;;;;5110201;28;20081;-69
2021/07/20 08:41:52;;;;;;;21.17;8.10;;;27.90;99.90;;;;;;5111597;28;20016;-68
2021/07/20 08:44:36;;;;;;;19.58;9.07;;;27.80;99.90;;;;;;5111366;28;20073;-68
2021/07/20 08:47:23;;;;;;;14.13;8.55;;;27.60;99.90;;;;;;5111407;28;20023;-68
2021/07/20 08:50:25;;;;;;;15.25;8.75;;;27.40;99.90;;;;;;5110172;28;20020;-68
2021/07/20 08:53:17;;;;;;;9.82;8.50;;;27.50;99.90;;;;;;5111338;28;20553;-68
2021/07/20 08:55:44;;;;;;;20.77;9.80;;;27.50;99.90;;;;;;5111285;28;20073;-69
2021/07/20 08:58:31;;;;;;;15.88;8.05;;;27.60;99.90;;;;;;5110885;28;20023;-68
2021/07/20 09:01:33;;;;;;;10.18;9.07;;;27.50;99.90;;;;;;5111598;28;20034;-70
2021/07/20 09:04:06;;;;;;;16.90;8.75;;;27.50;99.90;;;;;;5103998;28;20391;-70
2021/07/20 09:06:58;;;;;;;15.75;8.73;;;27.60;99.90;;;;;;5109717;28;20034;-70
2021/07/20 09:09:29;;;;;;;;;;;27.40;99.90;;;;;;5111618;28;20354;-70
2021/07/20 09:12:02;;;;;;;14.03;8.70;;;27.60;99.90;;;;;;5109455;28;19904;-70
2021/07/20 09:15:05;;;;;;;13.90;8.05;;;27.70;99.90;;;;;;5111370;28;20073;-70
2021/07/20 09:17:37;;;;;;;14.07;8.68;;;27.80;99.90;;;;;;5109098;28;20039;-70
2021/07/20 09:20:06;;;;;;;;;;;28.00;99.90;;;;;;5109944;28;20055;-70
2021/07/20 09:22:36;;;;;;;11.05;8.23;;;28.10;99.90;;;;;;5110746;28;19904;-70
2021/07/20 09:25:05;;;;;;;18.92;10.02;;;28.30;99.90;;;;;;5111061;28;20023;-71
2021/07/20 09:27:47;;;;;;;10.13;8.23;;;28.50;99.90;;;;;;5108997;28;20111;-70
2021/07/20 09:30:20;;;;;;;12.50;7.63;;;28.60;99.90;;;;;;5110985;28;20027;-70
2021/07/20 09:33:05;;;;;;;12.43;7.80;;;28.80;99.90;;;;;;5109361;28;20378;-69
2021/07/20 09:35:53;;;;;;;10.10;8.88;;;28.90;99.90;;;;;;5111046;28;20027;-70
2021/07/20 09:38:37;;;;;;;10.75;8.48;;;28.80;99.90;;;;;;5110489;28;20028;-70
2021/07/20 09:41:18;;;;;;;16.10;8.73;;;28.90;99.90;;;;;;5111049;28;20068;-70
2021/07/20 09:43:56;;;;;;;15.40;9.70;;;29.10;99.90;;;;;;5109422;28;20165;-71
2021/07/20 09:46:40;;;;;;;17.90;9.27;;;29.20;99.90;;;;;;5109235;28;20035;-71
2021/07/20 09:49:20;;;;;;;16.30;8.85;;;29.20;99.90;;;;;;5109311;28;20032;-71
2021/07/20 09:51:52;;;;;;;9.38;7.88;;;29.20;99.90;;;;;;5110575;28;20432;-71
2021/07/20 09:54:45;;;;;;;11.70;8.05;;;29.20;99.90;;;;;;5109525;28;20516;-71
2021/07/20 09:57:38;;;;;;;11.18;7.90;;;29.10;99.90;;;;;;5110620;28;20118;-72
2021/07/20 10:00:20;;;;;;;15.13;8.00;;;29.00;99.90;;;;;;5112879;28;20409;-71
2021/07/20 10:03:15;;;;;;;15.13;8.25;;;28.70;99.90;;;;;;5114822;27;20402;-72
2021/07/20 10:06:09;;;;;;;11.32;7.95;;;28.80;99.90;;;;;;5112953;28;20058;-73
2021/07/20 10:08:57;;;;;;;14.63;7.72;;;28.70;99.90;;;;;;5112988;28;20027;-72
2021/07/20 10:11:39;;;;;;;18.45;8.30;;;28.60;99.90;;;;;;5112434;28;20027;-75
2021/07/20 10:14:14;;;;;;;10.85;7.53;;;28.50;99.90;;;;;;5113032;28;20034;-72
2021/07/20 10:17:05;;;;;;;10.85;7.07;;;28.60;99.90;;;;;;5112861;28;20085;-71
2021/07/20 10:19:46;;;;;;;11.75;8.55;;;28.40;99.90;;;;;;5109936;28;20031;-72
2021/07/20 10:22:14;;;;;;;17.65;8.18;;;28.30;99.90;;;;;;5105565;28;20016;-72
2021/07/20 10:25:13;;;;;;;10.52;8.00;;;28.10;99.90;;;;;;5113956;28;20381;-72
2021/07/20 10:27:47;;;;;;;14.40;8.18;;;28.10;99.90;;;;;;5092713;28;20193;-72
2021/07/20 10:30:15;;;;;;;11.43;7.35;;;28.30;99.90;;;;;;5112486;28;20496;-73
2021/07/20 10:32:47;;;;;;;14.88;8.52;;;28.50;99.90;;;;;;5113690;28;20019;-73
2021/07/20 10:35:22;;;;;;;8.63;7.00;;;28.50;99.90;;;;;;5112350;28;20027;-72
2021/07/20 10:37:51;;;;;;;14.68;7.97;;;28.60;99.90;;;;;;5113782;28;20474;-73
2021/07/20 10:40:19;;;;;;;15.75;8.98;;;28.60;99.90;;;;;;5112234;28;20027;-71
2021/07/20 10:43:00;;;;;;;9.73;8.45;;;28.50;99.90;;;;;;5113555;28;20019;-73
2021/07/20 10:45:31;;;;;;;18.40;7.28;;;28.50;99.90;;;;;;5113568;28;20028;-72
2021/07/20 10:48:18;;;;;;;14.40;7.63;;;28.30;99.90;;;;;;5112482;28;20398;-75
2021/07/20 10:50:44;;;;;;;11.40;8.30;;;28.20;99.90;;;;;;5113618;28;20016;-73
2021/07/20 10:53:34;;;;;;;18.30;7.57;;;28.20;99.90;;;;;;5114679;28;20088;-74
2021/07/20 10:56:25;;;;;;;12.90;7.95;;;28.30;99.90;;;;;;5114799;28;20024;-73
2021/07/20 10:59:19;;;;;;;19.45;7.85;;;28.40;99.90;;;;;;5112125;28;20084;-72
2021/07/20 11:02:03;;;;;;;10.27;7.80;;;28.40;99.90;;;;;;5111719;28;20499;-73
2021/07/20 11:04:46;;;;;;;13.13;7.85;;;28.40;99.90;;;;;;5113152;28;20049;-72
2021/07/20 11:07:27;;;;;;;12.63;7.85;;;28.60;99.90;;;;;;5111608;28;20439;-73
2021/07/20 11:09:54;;;;;;;12.40;6.80;;;28.60;99.90;;;;;;5110374;28;20051;-73
2021/07/20 11:12:23;;;;;;;11.52;6.30;;;28.60;99.90;;;;;;5112976;28;20033;-72
2021/07/20 11:14:52;;;;;;;19.77;5.88;;;28.60;99.90;;;;;;5113496;28;20024;-74
2021/07/20 11:17:20;;;;;;;10.27;5.82;;;28.60;99.90;;;;;;5111860;28;20024;-73
2021/07/20 11:19:49;;;;;;;14.05;6.85;;;28.60;99.90;;;;;;5112611;28;20024;-72
2021/07/20 11:22:16;;;;;;;11.07;6.88;;;28.70;99.90;;;;;;5111341;28;20106;-73
2021/07/20 11:24:45;;;;;;;13.35;7.53;;;28.70;99.90;;;;;;5113040;28;20019;-73
2021/07/20 11:27:13;;;;;;;16.80;6.70;;;28.70;99.90;;;;;;5113253;28;20427;-73
2021/07/20 11:29:40;;;;;;;17.95;7.13;;;28.70;99.90;;;;;;5112371;28;20024;-73
2021/07/20 11:32:11;;;;;;;7.00;6.10;;;28.70;99.90;;;;;;5112873;28;20492;-74
2021/07/20 11:34:59;;;;;;;14.45;6.93;;;28.70;99.90;;;;;;5112427;28;20083;-72
2021/07/20 11:37:31;;;;;;;11.88;6.47;;;28.70;99.90;;;;;;5116435;28;20020;-72
2021/07/20 11:40:04;;;;;;;8.15;5.85;;;28.80;99.90;;;;;;5111787;28;20110;-74
2021/07/20 11:42:36;;;;;;;9.35;6.80;;;28.70;99.90;;;;;;5111938;28;20030;-72
2021/07/20 11:45:04;;;;;;;;;;;28.80;99.90;;;;;;5124701;28;20027;-73
2021/07/20 11:47:36;;;;;;;15.27;7.65;;;28.80;99.90;;;;;;5112534;28;20403;-71
2021/07/20 11:50:11;;;;;;;10.23;7.45;;;28.80;99.90;;;;;;5111265;28;20114;-71
2021/07/20 11:53:15;;;;;;;13.40;7.30;;;28.90;99.90;;;;;;5112537;28;20030;-75
2021/07/20 11:55:56;;;;;;;19.92;6.55;;;29.00;99.90;;;;;;5112124;28;20040;-72
2021/07/20 11:58:51;;;;;;;9.35;6.55;;;29.10;99.90;;;;;;5110722;28;20031;-72
2021/07/20 12:01:39;;;;;;;17.92;8.18;;;29.00;99.90;;;;;;5039828;28;20477;-72
2021/07/20 12:04:29;;;;;;;9.43;6.93;;;29.30;99.90;;;;;;5111365;28;20122;-73
2021/07/20 12:07:20;;;;;;;12.48;8.75;;;29.30;99.90;;;;;;5111975;28;20055;-72
2021/07/20 12:10:23;;;;;;;9.65;6.30;;;29.20;99.90;;;;;;5111703;28;20049;-73
2021/07/20 12:12:52;;;;;;;14.23;7.40;;;29.30;99.90;;;;;;5111794;28;20023;-72
2021/07/20 12:15:22;;;;;;;14.20;8.02;;;29.30;99.90;;;;;;5110530;28;20161;-72
2021/07/20 12:17:48;;;;;;;15.75;7.55;;;29.50;99.90;;;;;;5110386;28;20046;-73
2021/07/20 12:20:17;;;;;;;15.88;6.35;;;29.60;99.90;;;;;;5106071;28;20504;-73
2021/07/20 12:23:04;;;;;;;18.88;7.85;;;29.90;99.90;;;;;;5107817;28;20038;-73
2021/07/20 12:25:31;;;;;;;11.55;6.95;;;29.90;99.90;;;;;;5112113;28;20373;-71
2021/07/20 12:27:59;;;;;;;11.10;7.75;;;29.90;99.90;;;;;;5111623;28;20019;-73
2021/07/20 12:30:26;;;;;;;8.10;6.45;;;30.20;99.90;;;;;;5111195;28;20028;-74
2021/07/20 12:32:53;;;;;;;11.27;7.03;;;30.20;99.90;;;;;;5110216;28;20023;-73
2021/07/20 12:35:21;;;;;;;12.30;6.22;;;30.20;99.90;;;;;;5109986;28;20042;-72
2021/07/20 12:38:04;;;;;;;10.20;6.85;;;30.20;99.90;;;;;;5111783;28;20051;-73
2021/07/20 12:40:31;;;;;;;21.10;7.03;;;30.00;99.90;;;;;;5110134;28;20023;-73
2021/07/20 12:43:08;;;;;;;11.70;6.90;;;29.90;99.90;;;;;;5111389;28;20023;-73
2021/07/20 12:45:34;;;;;;;19.88;6.93;;;30.00;99.90;;;;;;5111851;28;20358;-73
2021/07/20 12:48:01;;;;;;;12.38;6.88;;;30.30;99.90;;;;;;5109774;28;20065;-72
2021/07/20 12:50:28;;;;;;;19.23;7.78;;;30.50;99.90;;;;;;5109849;28;20058;-71
2021/07/20 12:52:55;;;;;;;6.00;4.80;;;30.80;99.90;;;;;;5111133;28;20107;-72
2021/07/20 12:55:22;;;;;;;9.38;5.38;;;30.60;99.90;;;;;;5111273;28;20023;-71
2021/07/20 12:57:59;;;;;;;11.60;4.50;;;30.00;99.90;;;;;;5109844;28;20527;-74
2021/07/20 13:00:28;;;;;;;5.28;3.97;;;29.60;99.90;;;;;;5110076;28;20029;-72
2021/07/20 13:02:57;;;;;;;6.15;4.25;;;29.30;99.90;;;;;;5111026;28;20370;-71
2021/07/20 13:05:28;;;;;;;6.57;3.75;;;28.60;99.90;;;;;;5109770;28;20081;-72
2021/07/20 13:07:59;;;;;;;6.60;3.33;;;28.70;99.90;;;;;;5109864;28;20048;-73